createdAt,value
2023-01-21T00:00:16.919Z,-3.70
2023-01-21T00:02:43.901Z,-3.60
2023-01-21T00:05:10.756Z,-3.60
2023-01-21T00:07:37.576Z,-3.50
2023-01-21T00:10:04.680Z,-3.50
2023-01-21T00:12:31.444Z,-3.50
2023-01-21T00:14:58.246Z,-3.50
2023-01-21T00:17:24.982Z,-3.40
2023-01-21T00:19:51.773Z,-3.40
2023-01-21T00:22:18.739Z,-3.40
2023-01-21T00:24:50.165Z,-3.30
2023-01-21T00:27:16.949Z,-3.30
2023-01-21T00:29:43.791Z,-3.30
2023-01-21T00:32:10.543Z,-3.30
2023-01-21T00:34:37.551Z,-3.30
2023-01-21T00:37:07.941Z,-3.30
2023-01-21T00:39:34.851Z,-3.30
2023-01-21T00:42:04.436Z,-3.30
2023-01-21T00:44:31.221Z,-3.30
2023-01-21T00:46:58.016Z,-3.30
2023-01-21T00:49:24.837Z,-3.20
2023-01-21T00:51:51.589Z,-3.20
2023-01-21T00:54:18.452Z,-3.30
2023-01-21T00:56:45.235Z,-3.30
2023-01-21T00:59:12.233Z,-3.30
2023-01-21T01:01:39.440Z,-3.40
2023-01-21T01:04:06.693Z,-3.40
2023-01-21T01:06:36.372Z,-3.40
2023-01-21T01:09:03.586Z,-3.40
2023-01-21T01:11:31.667Z,-3.40
2023-01-21T01:14:02.230Z,-3.40
2023-01-21T01:16:29.127Z,-3.40
2023-01-21T01:18:56.499Z,-3.50
2023-01-21T01:21:23.635Z,-3.50
2023-01-21T01:24:00.827Z,-3.50
2023-01-21T01:26:27.788Z,-3.50
2023-01-21T01:28:54.770Z,-3.50
2023-01-21T01:31:24.645Z,-3.60
2023-01-21T01:33:53.992Z,-3.50
2023-01-21T01:36:25.598Z,-3.60
2023-01-21T01:38:53.905Z,-3.60
2023-01-21T01:41:23.881Z,-3.60
2023-01-21T01:43:55.192Z,-3.50
2023-01-21T01:46:23.037Z,-3.50
2023-01-21T01:49:04.376Z,-3.50
2023-01-21T01:51:46.290Z,-3.50
2023-01-21T01:54:18.265Z,-3.50
2023-01-21T01:56:48.466Z,-3.50
2023-01-21T01:59:15.332Z,-3.50
2023-01-21T02:01:42.289Z,-3.40
2023-01-21T02:04:14.558Z,-3.50
2023-01-21T02:06:42.316Z,-3.50
2023-01-21T02:09:11.975Z,-3.40
2023-01-21T02:11:39.125Z,-3.50
2023-01-21T02:14:06.335Z,-3.50
2023-01-21T02:17:07.452Z,-3.50
2023-01-21T02:19:47.644Z,-3.50
2023-01-21T02:22:52.436Z,-3.60
2023-01-21T02:25:35.359Z,-3.60
2023-01-21T02:28:32.505Z,-3.60
2023-01-21T02:31:27.658Z,-3.60
2023-01-21T02:34:06.450Z,-3.70
2023-01-21T02:36:48.219Z,-3.70
2023-01-21T02:39:20.994Z,-3.70
2023-01-21T02:42:04.177Z,-3.60
2023-01-21T02:44:42.120Z,-3.60
2023-01-21T02:47:08.824Z,-3.60
2023-01-21T02:49:58.464Z,-3.60
2023-01-21T02:52:26.093Z,-3.60
2023-01-21T02:54:58.258Z,-3.50
2023-01-21T02:57:24.946Z,-3.50
2023-01-21T02:59:55.009Z,-3.50
2023-01-21T03:02:47.401Z,-3.50
2023-01-21T03:05:44.348Z,-3.50
2023-01-21T03:08:39.759Z,-3.40
2023-01-21T03:11:17.606Z,-3.40
2023-01-21T03:14:11.344Z,-3.40
2023-01-21T03:16:58.600Z,-3.40
2023-01-21T03:19:46.814Z,-3.40
2023-01-21T03:22:19.132Z,-3.40
2023-01-21T03:24:50.290Z,-3.40
2023-01-21T03:27:19.903Z,-3.40
2023-01-21T03:29:49.917Z,-3.50
2023-01-21T03:32:18.493Z,-3.50
2023-01-21T03:34:50.911Z,-3.40
2023-01-21T03:37:30.444Z,-3.50
2023-01-21T03:40:09.897Z,-3.50
2023-01-21T03:42:37.428Z,-3.50
2023-01-21T03:45:04.852Z,-3.50
2023-01-21T03:47:39.138Z,-3.50
2023-01-21T03:50:08.953Z,-3.50
2023-01-21T03:52:40.144Z,-3.50
2023-01-21T03:55:07.963Z,-3.50
2023-01-21T03:57:34.855Z,-3.50
2023-01-21T04:00:01.752Z,-3.50
2023-01-21T04:02:31.453Z,-3.50
2023-01-21T04:04:58.300Z,-3.50
2023-01-21T04:07:25.069Z,-3.50
2023-01-21T04:09:51.851Z,-3.50
2023-01-21T04:12:19.966Z,-3.50
2023-01-21T04:14:46.768Z,-3.50
2023-01-21T04:17:13.543Z,-3.50
2023-01-21T04:19:40.334Z,-3.50
2023-01-21T04:22:07.179Z,-3.50
2023-01-21T04:24:34.805Z,-3.50
2023-01-21T04:27:01.650Z,-3.50
2023-01-21T04:29:28.459Z,-3.50
2023-01-21T04:31:55.222Z,-3.50
2023-01-21T04:34:22.175Z,-3.50
2023-01-21T04:36:48.882Z,-3.50
2023-01-21T04:39:15.755Z,-3.50
2023-01-21T04:41:42.583Z,-3.50
2023-01-21T04:44:09.380Z,-3.50
2023-01-21T04:46:36.153Z,-3.50
2023-01-21T04:49:02.943Z,-3.50
2023-01-21T04:51:29.746Z,-3.50
2023-01-21T04:53:56.483Z,-3.50
2023-01-21T04:56:23.224Z,-3.50
2023-01-21T04:58:50.655Z,-3.50
2023-01-21T05:01:17.476Z,-3.50
2023-01-21T05:03:44.242Z,-3.50
2023-01-21T05:06:11.013Z,-3.50
2023-01-21T05:08:37.769Z,-3.50
2023-01-21T05:11:04.563Z,-3.50
2023-01-21T05:13:31.287Z,-3.50
2023-01-21T05:16:04.114Z,-3.50
2023-01-21T05:18:30.934Z,-3.50
2023-01-21T05:20:57.736Z,-3.50
2023-01-21T05:23:24.468Z,-3.60
2023-01-21T05:25:51.213Z,-3.60
2023-01-21T05:28:17.957Z,-3.50
2023-01-21T05:30:44.864Z,-3.50
2023-01-21T05:33:11.595Z,-3.50
2023-01-21T05:35:38.400Z,-3.50
2023-01-21T05:38:05.346Z,-3.50
2023-01-21T05:40:32.163Z,-3.50
2023-01-21T05:42:58.904Z,-3.50
2023-01-21T05:45:25.843Z,-3.40
2023-01-21T05:47:52.581Z,-3.40
2023-01-21T05:50:19.570Z,-3.40
2023-01-21T05:52:46.374Z,-3.40
2023-01-21T05:55:13.199Z,-3.40
2023-01-21T05:57:39.978Z,-3.40
2023-01-21T06:00:07.418Z,-3.30
2023-01-21T06:02:34.193Z,-3.30
2023-01-21T06:05:00.978Z,-3.30
2023-01-21T06:07:27.738Z,-3.30
2023-01-21T06:09:54.500Z,-3.30
2023-01-21T06:12:22.718Z,-3.30
2023-01-21T06:14:50.638Z,-3.30
2023-01-21T06:17:17.390Z,-3.30
2023-01-21T06:19:44.133Z,-3.30
2023-01-21T06:22:14.985Z,-3.20
2023-01-21T06:24:41.771Z,-3.30
2023-01-21T06:27:08.536Z,-3.20
2023-01-21T06:29:35.340Z,-3.20
2023-01-21T06:32:02.225Z,-3.20
2023-01-21T06:34:29.050Z,-3.20
2023-01-21T06:36:55.813Z,-3.20
2023-01-21T06:39:22.582Z,-3.20
2023-01-21T06:41:49.343Z,-3.20
2023-01-21T06:44:16.085Z,-3.30
2023-01-21T06:46:45.913Z,-3.30
2023-01-21T06:49:18.980Z,-3.30
2023-01-21T06:51:46.576Z,-3.30
2023-01-21T06:54:13.346Z,-3.30
2023-01-21T06:56:43.601Z,-3.30
2023-01-21T06:59:10.473Z,-3.30
2023-01-21T07:01:37.212Z,-3.40
2023-01-21T07:04:04.051Z,-3.40
2023-01-21T07:06:30.798Z,-3.40
2023-01-21T07:08:57.570Z,-3.40
2023-01-21T07:11:24.399Z,-3.40
2023-01-21T07:13:51.141Z,-3.30
2023-01-21T07:16:17.936Z,-3.40
2023-01-21T07:18:44.636Z,-3.40
2023-01-21T07:21:11.381Z,-3.40
2023-01-21T07:23:38.246Z,-3.40
2023-01-21T07:26:05.549Z,-3.40
2023-01-21T07:28:32.406Z,-3.30
2023-01-21T07:31:00.293Z,-3.20
2023-01-21T07:33:27.511Z,-3.20
2023-01-21T07:35:54.993Z,-3.10
2023-01-21T07:38:22.157Z,-3.00
2023-01-21T07:40:49.572Z,-3.00
2023-01-21T07:43:17.058Z,-2.90
2023-01-21T07:45:44.055Z,-2.80
2023-01-21T07:48:11.216Z,-2.80
2023-01-21T07:50:38.099Z,-2.70
2023-01-21T07:53:04.966Z,-2.60
2023-01-21T07:55:32.160Z,-2.60
2023-01-21T07:57:59.598Z,-2.50
2023-01-21T08:00:27.287Z,-2.40
2023-01-21T08:02:55.191Z,-2.40
2023-01-21T08:05:25.749Z,-2.40
2023-01-21T08:07:52.900Z,-2.30
2023-01-21T08:10:22.177Z,-2.30
2023-01-21T08:12:49.068Z,-2.30
2023-01-21T08:15:16.262Z,-2.30
2023-01-21T08:17:44.118Z,-2.30
2023-01-21T08:20:12.247Z,-2.30
2023-01-21T08:22:39.124Z,-2.30
2023-01-21T08:25:06.680Z,-2.20
2023-01-21T08:27:33.604Z,-2.10
2023-01-21T08:30:00.361Z,-2.10
2023-01-21T08:32:30.633Z,-2.00
2023-01-21T08:34:57.479Z,-2.10
2023-01-21T08:37:24.165Z,-2.00
2023-01-21T08:39:50.964Z,-2.00
2023-01-21T08:42:17.681Z,-2.00
2023-01-21T08:44:46.101Z,-2.00
2023-01-21T08:47:12.867Z,-2.00
2023-01-21T08:49:42.297Z,-2.00
2023-01-21T08:52:10.218Z,-2.00
2023-01-21T08:54:37.033Z,-1.90
2023-01-21T08:57:03.967Z,-1.90
2023-01-21T08:59:30.674Z,-1.90
2023-01-21T09:01:57.567Z,-1.80
2023-01-21T09:04:24.476Z,-1.80
2023-01-21T09:06:51.208Z,-1.90
2023-01-21T09:09:18.096Z,-1.90
2023-01-21T09:11:44.892Z,-1.90
2023-01-21T09:14:11.918Z,-1.90
2023-01-21T09:16:39.203Z,-1.80
2023-01-21T09:19:06.088Z,-1.80
2023-01-21T09:21:35.894Z,-1.90
2023-01-21T09:24:03.129Z,-1.90
2023-01-21T09:26:29.920Z,-1.90
2023-01-21T09:28:59.548Z,-1.90
2023-01-21T09:31:28.125Z,-1.80
2023-01-21T09:33:58.043Z,-1.90
2023-01-21T09:36:28.018Z,-1.80
2023-01-21T09:38:54.890Z,-1.80
2023-01-21T09:41:38.248Z,-1.70
2023-01-21T09:44:24.629Z,-1.70
2023-01-21T09:47:18.849Z,-1.60
2023-01-21T09:49:50.975Z,-1.50
2023-01-21T09:52:39.236Z,-1.40
2023-01-21T09:55:18.889Z,-1.40
2023-01-21T09:58:09.654Z,-1.30
2023-01-21T10:00:55.165Z,-1.20
2023-01-21T10:03:37.207Z,-1.00
2023-01-21T10:06:09.899Z,-0.80
2023-01-21T10:09:11.486Z,-0.70
2023-01-21T10:11:38.202Z,-0.60
2023-01-21T10:14:41.602Z,-0.60
2023-01-21T10:17:33.201Z,-0.50
2023-01-21T10:20:30.208Z,-0.60
2023-01-21T10:23:11.166Z,-0.70
2023-01-21T10:25:39.670Z,-0.70
2023-01-21T10:28:32.716Z,-0.70
2023-01-21T10:31:28.400Z,-0.60
2023-01-21T10:33:55.988Z,-0.60
2023-01-21T10:36:39.098Z,-0.60
2023-01-21T10:39:41.723Z,-0.60
2023-01-21T10:42:22.143Z,-0.60
2023-01-21T10:45:08.211Z,-0.60
2023-01-21T10:47:52.472Z,-0.70
2023-01-21T10:50:39.772Z,-0.80
2023-01-21T10:53:12.733Z,-0.80
2023-01-21T10:56:00.724Z,-0.80
2023-01-21T10:58:32.876Z,-0.70
2023-01-21T11:01:04.631Z,-0.70
2023-01-21T11:03:44.577Z,-0.70
2023-01-21T11:06:15.130Z,-0.60
2023-01-21T11:08:45.141Z,-0.50
2023-01-21T11:11:13.174Z,-0.50
2023-01-21T11:13:41.304Z,-0.40
2023-01-21T11:16:08.787Z,-0.40
2023-01-21T11:18:36.766Z,-0.40
2023-01-21T11:21:19.709Z,-0.50
2023-01-21T11:24:00.805Z,-0.40
2023-01-21T11:26:36.205Z,-0.50
2023-01-21T11:29:17.906Z,-0.50
2023-01-21T11:31:48.679Z,-0.50
2023-01-21T11:34:23.209Z,-0.50
2023-01-21T11:37:04.846Z,-0.60
2023-01-21T11:39:33.893Z,-0.60
2023-01-21T11:42:16.368Z,-0.70
2023-01-21T11:44:57.526Z,-0.60
2023-01-21T11:47:38.745Z,-0.70
2023-01-21T11:50:23.572Z,-0.60
2023-01-21T11:53:13.683Z,-0.70
2023-01-21T11:55:46.067Z,-0.70
2023-01-21T11:58:30.539Z,-0.60
2023-01-21T12:01:00.426Z,-0.70
2023-01-21T12:03:53.224Z,-0.60
2023-01-21T12:06:30.678Z,-0.50
2023-01-21T12:09:03.201Z,-0.40
2023-01-21T12:11:31.780Z,-0.40
2023-01-21T12:14:22.886Z,-0.40
2023-01-21T12:17:21.969Z,-0.40
2023-01-21T12:20:11.647Z,-0.30
2023-01-21T12:22:49.874Z,-0.30
2023-01-21T12:25:38.210Z,-0.30
2023-01-21T12:28:14.106Z,-0.40
2023-01-21T12:30:59.836Z,-0.40
2023-01-21T12:33:32.712Z,-0.40
2023-01-21T12:36:13.032Z,-0.30
2023-01-21T12:39:05.314Z,-0.40
2023-01-21T12:41:33.025Z,-0.30
2023-01-21T12:44:24.986Z,-0.20
2023-01-21T12:46:56.421Z,-0.20
2023-01-21T12:49:32.719Z,-0.30
2023-01-21T12:52:04.998Z,-0.30
2023-01-21T12:54:58.073Z,-0.30
2023-01-21T12:57:49.834Z,-0.40
2023-01-21T13:00:22.614Z,-0.40
2023-01-21T13:03:26.700Z,-0.50
2023-01-21T13:06:15.044Z,-0.50
2023-01-21T13:08:44.542Z,-0.60
2023-01-21T13:11:33.159Z,-0.60
2023-01-21T13:14:09.035Z,-0.70
2023-01-21T13:16:43.627Z,-0.80
2023-01-21T13:19:13.858Z,-0.80
2023-01-21T13:22:15.479Z,-0.80
2023-01-21T13:25:01.309Z,-0.80
2023-01-21T13:27:45.845Z,-0.90
2023-01-21T13:30:39.718Z,-0.90
2023-01-21T13:33:34.672Z,-0.90
2023-01-21T13:36:34.433Z,-1.00
2023-01-21T13:39:22.126Z,-1.00
2023-01-21T13:42:25.154Z,-1.00
2023-01-21T13:45:07.559Z,-1.00
2023-01-21T13:47:37.246Z,-1.10
2023-01-21T13:50:23.625Z,-1.10
2023-01-21T13:53:25.496Z,-1.10
2023-01-21T13:56:13.761Z,-1.00
2023-01-21T13:58:50.652Z,-1.00
2023-01-21T14:01:22.987Z,-1.10
2023-01-21T14:04:11.736Z,-1.00
2023-01-21T14:07:27.078Z,-1.10
2023-01-21T14:09:58.839Z,-1.10
2023-01-21T14:12:49.126Z,-1.10
2023-01-21T14:15:30.700Z,-1.20
2023-01-21T14:18:42.258Z,-1.20
2023-01-21T14:21:33.893Z,-1.20
2023-01-21T14:24:25.471Z,-1.20
2023-01-21T14:27:07.262Z,-1.20
2023-01-21T14:29:40.859Z,-1.20
2023-01-21T14:32:19.369Z,-1.20
2023-01-21T14:35:00.367Z,-1.20
2023-01-21T14:37:37.687Z,-1.20
2023-01-21T14:40:26.795Z,-1.20
2023-01-21T14:42:54.730Z,-1.20
2023-01-21T14:45:25.851Z,-1.30
2023-01-21T14:47:57.796Z,-1.30
2023-01-21T14:50:51.063Z,-1.30
2023-01-21T14:53:26.117Z,-1.30
2023-01-21T14:56:20.790Z,-1.40
2023-01-21T14:58:53.747Z,-1.40
2023-01-21T15:01:45.977Z,-1.40
2023-01-21T15:04:20.381Z,-1.40
2023-01-21T15:06:50.354Z,-1.40
2023-01-21T15:09:25.518Z,-1.40
2023-01-21T15:11:58.663Z,-1.40
2023-01-21T15:14:30.580Z,-1.40
2023-01-21T15:16:57.335Z,-1.40
2023-01-21T15:19:28.731Z,-1.40
2023-01-21T15:22:17.487Z,-1.50
2023-01-21T15:25:18.342Z,-1.50
2023-01-21T15:28:23.015Z,-1.50
2023-01-21T15:31:04.949Z,-1.50
2023-01-21T15:33:37.829Z,-1.50
2023-01-21T15:36:16.226Z,-1.60
2023-01-21T15:38:43.409Z,-1.70
2023-01-21T15:41:41.921Z,-1.70
2023-01-21T15:44:28.663Z,-1.70
2023-01-21T15:47:17.417Z,-1.70
2023-01-21T15:50:12.501Z,-1.70
2023-01-21T15:53:16.261Z,-1.80
2023-01-21T15:56:18.183Z,-1.80
2023-01-21T15:58:57.726Z,-1.80
2023-01-21T16:01:29.484Z,-1.80
2023-01-21T16:04:20.664Z,-1.80
2023-01-21T16:07:20.946Z,-1.90
2023-01-21T16:10:08.004Z,-1.90
2023-01-21T16:12:54.386Z,-1.90
2023-01-21T16:15:53.835Z,-1.90
2023-01-21T16:18:38.467Z,-1.90
2023-01-21T16:21:05.280Z,-1.90
2023-01-21T16:23:38.414Z,-1.90
2023-01-21T16:26:05.287Z,-1.90
2023-01-21T16:28:43.732Z,-1.90
2023-01-21T16:31:11.001Z,-1.90
2023-01-21T16:33:37.841Z,-1.90
2023-01-21T16:36:09.430Z,-2.00
2023-01-21T16:38:37.782Z,-2.00
2023-01-21T16:41:07.638Z,-2.00
2023-01-21T16:43:44.778Z,-2.00
2023-01-21T16:46:39.126Z,-2.00
2023-01-21T16:49:12.774Z,-2.00
2023-01-21T16:51:43.826Z,-2.10
2023-01-21T16:54:19.551Z,-2.00
2023-01-21T16:57:22.751Z,-2.10
2023-01-21T16:59:49.624Z,-2.10
2023-01-21T17:02:31.669Z,-2.10
2023-01-21T17:05:07.027Z,-2.10
2023-01-21T17:07:42.747Z,-2.10
2023-01-21T17:10:20.606Z,-2.10
2023-01-21T17:12:54.317Z,-2.10
2023-01-21T17:15:41.163Z,-2.10
2023-01-21T17:18:22.893Z,-2.10
2023-01-21T17:20:52.735Z,-2.10
2023-01-21T17:23:25.823Z,-2.10
2023-01-21T17:26:03.577Z,-2.10
2023-01-21T17:29:03.273Z,-2.10
2023-01-21T17:31:31.592Z,-2.10
2023-01-21T17:34:20.743Z,-2.10
2023-01-21T17:36:50.606Z,-2.10
2023-01-21T17:39:49.186Z,-2.20
2023-01-21T17:42:25.031Z,-2.20
2023-01-21T17:44:55.559Z,-2.10
2023-01-21T17:47:25.286Z,-2.10
2023-01-21T17:50:23.850Z,-2.20
2023-01-21T17:53:01.646Z,-2.20
2023-01-21T17:55:32.685Z,-2.20
2023-01-21T17:58:04.602Z,-2.20
2023-01-21T18:00:44.791Z,-2.20
2023-01-21T18:03:12.422Z,-2.20
2023-01-21T18:05:40.938Z,-2.20
2023-01-21T18:08:15.895Z,-2.20
2023-01-21T18:10:43.792Z,-2.20
2023-01-21T18:13:14.589Z,-2.20
2023-01-21T18:15:43.121Z,-2.20
2023-01-21T18:18:24.185Z,-2.20
2023-01-21T18:20:51.050Z,-2.30
2023-01-21T18:23:18.291Z,-2.30
2023-01-21T18:25:50.892Z,-2.30
2023-01-21T18:28:23.491Z,-2.20
2023-01-21T18:30:51.276Z,-2.30
2023-01-21T18:33:18.925Z,-2.20
2023-01-21T18:35:48.141Z,-2.20
2023-01-21T18:38:19.158Z,-2.20
2023-01-21T18:40:46.328Z,-2.20
2023-01-21T18:43:13.106Z,-2.20
2023-01-21T18:45:40.347Z,-2.20
2023-01-21T18:48:12.195Z,-2.20
2023-01-21T18:50:39.119Z,-2.20
2023-01-21T18:53:06.151Z,-2.20
2023-01-21T18:55:33.002Z,-2.20
2023-01-21T18:57:59.876Z,-2.20
2023-01-21T19:00:32.232Z,-2.20
2023-01-21T19:03:01.186Z,-2.20
2023-01-21T19:05:33.979Z,-2.20
2023-01-21T19:08:01.789Z,-2.20
2023-01-21T19:10:28.845Z,-2.20
2023-01-21T19:12:55.566Z,-2.20
2023-01-21T19:15:24.809Z,-2.20
2023-01-21T19:17:52.325Z,-2.20
2023-01-21T19:20:19.439Z,-2.20
2023-01-21T19:22:47.110Z,-2.20
2023-01-21T19:25:14.520Z,-2.20
2023-01-21T19:27:44.204Z,-2.20
2023-01-21T19:30:32.389Z,-2.20
2023-01-21T19:33:03.360Z,-2.20
2023-01-21T19:35:49.168Z,-2.20
2023-01-21T19:38:19.063Z,-2.20
2023-01-21T19:40:46.765Z,-2.20
2023-01-21T19:43:14.940Z,-2.20
2023-01-21T19:45:42.590Z,-2.20
2023-01-21T19:48:21.034Z,-2.20
2023-01-21T19:50:48.055Z,-2.20
2023-01-21T19:53:17.636Z,-2.20
2023-01-21T19:55:46.174Z,-2.20
2023-01-21T19:58:19.726Z,-2.20
2023-01-21T20:00:49.351Z,-2.20
2023-01-21T20:03:18.424Z,-2.20
2023-01-21T20:05:46.198Z,-2.20
2023-01-21T20:08:24.053Z,-2.20
2023-01-21T20:10:51.027Z,-2.20
2023-01-21T20:13:18.174Z,-2.20
2023-01-21T20:15:46.683Z,-2.20
2023-01-21T20:18:24.414Z,-2.20
2023-01-21T20:20:52.379Z,-2.20
2023-01-21T20:23:20.449Z,-2.20
2023-01-21T20:25:51.090Z,-2.20
2023-01-21T20:28:38.553Z,-2.20
2023-01-21T20:31:08.044Z,-2.20
2023-01-21T20:33:36.272Z,-2.20
2023-01-21T20:36:13.895Z,-2.20
2023-01-21T20:38:42.212Z,-2.20
2023-01-21T20:41:10.145Z,-2.10
2023-01-21T20:43:36.923Z,-2.20
2023-01-21T20:46:07.082Z,-2.10
2023-01-21T20:48:42.892Z,-2.10
2023-01-21T20:51:10.322Z,-2.10
2023-01-21T20:53:38.194Z,-2.10
2023-01-21T20:56:20.826Z,-2.10
2023-01-21T20:58:48.060Z,-2.10
2023-01-21T21:01:17.205Z,-2.10
2023-01-21T21:03:44.123Z,-2.10
2023-01-21T21:06:18.176Z,-2.10
2023-01-21T21:08:44.972Z,-2.10
2023-01-21T21:11:13.624Z,-2.10
2023-01-21T21:16:24.790Z,-2.10
2023-01-21T21:18:51.884Z,-2.20
2023-01-21T21:21:21.763Z,-2.20
2023-01-21T21:23:51.554Z,-2.20
2023-01-21T21:26:23.046Z,-2.20
2023-01-21T21:28:50.688Z,-2.20
2023-01-21T21:31:17.974Z,-2.20
2023-01-21T21:33:45.197Z,-2.20
2023-01-21T21:36:20.547Z,-2.10
2023-01-21T21:38:48.979Z,-2.10
2023-01-21T21:41:39.619Z,-2.10
2023-01-21T21:44:07.574Z,-2.10
2023-01-21T21:46:53.387Z,-2.10
2023-01-21T21:49:20.300Z,-2.10
2023-01-21T21:51:47.115Z,-2.20
2023-01-21T21:54:15.756Z,-2.20
2023-01-21T21:56:43.345Z,-2.10
2023-01-21T21:59:12.226Z,-2.20
2023-01-21T22:01:40.788Z,-2.10
2023-01-21T22:04:07.835Z,-2.10
2023-01-21T22:06:34.619Z,-2.10
2023-01-21T22:09:01.957Z,-2.10
2023-01-21T22:11:29.276Z,-2.10
2023-01-21T22:13:56.795Z,-2.20
2023-01-21T22:16:28.697Z,-2.10
2023-01-21T22:18:57.668Z,-2.10
2023-01-21T22:21:32.933Z,-2.10
2023-01-21T22:24:01.203Z,-2.20
2023-01-21T22:26:28.563Z,-2.20
2023-01-21T22:28:55.968Z,-2.10
2023-01-21T22:31:25.315Z,-2.10
2023-01-21T22:33:52.623Z,-2.10
2023-01-21T22:36:21.694Z,-2.10
2023-01-21T22:38:49.350Z,-2.10
2023-01-21T22:41:18.188Z,-2.10
2023-01-21T22:43:48.114Z,-2.10
2023-01-21T22:46:17.846Z,-2.10
2023-01-21T22:48:46.152Z,-2.10
2023-01-21T22:51:15.664Z,-2.10
2023-01-21T22:53:45.326Z,-2.10
2023-01-21T22:56:14.132Z,-2.10
2023-01-21T22:58:41.068Z,-2.10
2023-01-21T23:01:08.934Z,-2.10
2023-01-21T23:03:37.421Z,-2.10
2023-01-21T23:06:06.446Z,-2.10
2023-01-21T23:08:33.886Z,-2.10
2023-01-21T23:11:05.820Z,-2.10
2023-01-21T23:13:33.519Z,-2.10
2023-01-21T23:16:00.545Z,-2.10
2023-01-21T23:18:29.063Z,-2.10
2023-01-21T23:20:56.750Z,-2.10
2023-01-21T23:23:24.839Z,-2.10
2023-01-21T23:25:51.955Z,-2.10
2023-01-21T23:28:18.743Z,-2.00
2023-01-21T23:30:45.663Z,-2.10
2023-01-21T23:33:12.931Z,-2.00
2023-01-21T23:35:39.679Z,-2.00
2023-01-21T23:38:06.362Z,-2.10
2023-01-21T23:40:33.213Z,-2.10
2023-01-21T23:43:00.045Z,-2.00
2023-01-21T23:45:26.890Z,-2.10
2023-01-21T23:47:54.812Z,-2.10
2023-01-21T23:50:21.992Z,-2.10
2023-01-21T23:52:48.836Z,-2.10
2023-01-21T23:55:15.639Z,-2.10
2023-01-21T23:57:42.424Z,-2.10
